Time;durP1;ratioP1;P1;durP2;ratioP2;P2;SDS_P1;SDS_P2;PMS_P1;PMS_P2;Temp;Humidity;BMP_temperature;BMP_pressure;BME280_temperature;BME280_humidity;BME280_pressure;Samples;Min_cycle;Max_cycle;Signal;HPM_P1;HPM_P2
2021/10/12 00:01:45;;;;;;;;;8.00;7.33;;;;;13.80;nan;102026.34;4751662;29;44860;-84
2021/10/12 00:07:19;;;;;;;;;9.00;9.00;;;;;13.47;nan;101969.47;4799876;29;45415;-84
2021/10/12 00:10:05;;;;;;;;;9.33;9.00;;;;;13.60;nan;102027.69;4815572;29;45555;-84
2021/10/12 00:12:40;;;;;;;;;8.00;8.00;;;;;13.61;nan;102026.78;4799420;29;45322;-84
2021/10/12 00:19:47;;;;;;;;;;;;;;;;;;;;;
2021/10/12 00:22:18;;;;;;;;;9.67;9.00;;;;;13.54;nan;101996.38;4814426;29;71512;-83
2021/10/12 00:28:21;;;;;;;;;11.33;9.33;;;;;13.39;nan;101985.31;4844373;29;45514;-84
2021/10/12 00:31:22;;;;;;;;;8.33;8.33;;;;;13.82;nan;102022.81;4833394;29;46427;-84
2021/10/12 00:34:40;;;;;;;;;;;;;;;;;;;;;
2021/10/12 00:37:23;;;;;;;;;10.33;7.33;;;;;13.84;nan;102015.72;4816121;29;67566;-83
2021/10/12 00:44:26;;;;;;;;;;;;;;;;;;;;;
2021/10/12 00:46:47;;;;;;;;;5.00;5.00;;;;;13.45;nan;101955.16;4812916;29;45461;-84
2021/10/12 00:49:28;;;;;;;;;;;;;;;;;;;;;
2021/10/12 00:52:10;;;;;;;;;;;;;;;;;;;;;
2021/10/12 00:55:29;;;;;;;;;;;;;;;;;;;;;
2021/10/12 00:58:50;;;;;;;;;;;;;;;;;;;;;
2021/10/12 01:06:14;;;;;;;;;;;;;;;;;;;;;
2021/10/12 01:09:46;;;;;;;;;;;;;;;;;;;;;
2021/10/12 01:21:30;;;;;;;;;;;;;;;;;;;;;
2021/10/12 01:27:37;;;;;;;;;;;;;;;;;;;;;
2021/10/12 01:30:22;;;;;;;;;6.33;6.33;;;;;13.56;nan;101951.84;4832313;29;65042;-84
2021/10/12 01:36:47;;;;;;;;;;;;;;;;;;;;;
2021/10/12 01:39:34;;;;;;;;;8.00;5.33;;;;;13.54;nan;101926.88;4813621;29;68601;-83
2021/10/12 01:46:27;;;;;;;;;;;;;;;;;;;;;
2021/10/12 01:49:35;;;;;;;;;;;;;;;;;;;;;
2021/10/12 01:56:08;;;;;;;;;;;;;;;;;;;;;
2021/10/12 02:02:15;;;;;;;;;6.67;6.33;;;;;13.07;nan;101939.13;4741364;29;45419;-83
2021/10/12 02:18:01;;;;;;;;;5.33;4.67;;;;;13.00;nan;101906.94;5159709;23;46817;-83
2021/10/12 02:23:59;;;;;;;;;;;;;;;;;;;;;
2021/10/12 02:33:50;;;;;;;;;;;;;;;;;;;;;
2021/10/12 02:37:01;;;;;;;;;;;;;;;;;;;;;
2021/10/12 02:47:37;;;;;;;;;;;;;;;;;;;;;
2021/10/12 02:50:48;;;;;;;;;;;;;;;;;;;;;
2021/10/12 02:53:50;;;;;;;;;;;;;;;;;;;;;
2021/10/12 03:00:03;;;;;;;;;8.00;7.00;;;;;12.87;nan;101879.97;4727093;30;44806;-85
2021/10/12 03:13:20;;;;;;;;;;;;;;;;;;;;;
2021/10/12 03:20:44;;;;;;;;;;;;;;;;;;;;;
2021/10/12 03:36:10;;;;;;;;;;;;;;;;;;;;;
2021/10/12 03:38:50;;;;;;;;;10.67;9.00;;;;;12.81;nan;101868.25;4761567;29;45593;-84
2021/10/12 03:45:19;;;;;;;;;;;;;;;;;;;;;
2021/10/12 03:47:55;;;;;;;;;;;;;;;;;;;;;
2021/10/12 03:50:58;;;;;;;;;7.67;7.00;;;;;12.74;nan;101868.09;4798492;29;67966;-84
2021/10/12 03:53:47;;;;;;;;;7.33;7.33;;;;;12.74;nan;101868.09;4795161;29;45392;-83
2021/10/12 03:57:10;;;;;;;;;;;;;;;;;;;;;
2021/10/12 04:07:27;;;;;;;;;;;;;;;;;;;;;
2021/10/12 04:10:02;;;;;;;;;3.00;3.00;;;;;12.55;nan;101851.63;4780530;29;75293;-84
2021/10/12 04:25:45;;;;;;;;;;;;;;;;;;;;;
2021/10/12 04:28:28;;;;;;;;;8.67;8.67;;;;;12.16;nan;101833.81;4760579;29;66979;-84
2021/10/12 04:31:29;;;;;;;;;9.00;8.00;;;;;12.27;nan;101815.41;4750030;29;44857;-85
2021/10/12 04:37:49;;;;;;;;;;;;;;;;;;;;;
2021/10/12 04:40:30;;;;;;;;;;;;;;;;;;;;;
2021/10/12 04:47:11;;;;;;;;;9.00;8.33;;;;;12.43;nan;101815.78;4707888;30;45593;-84
2021/10/12 04:50:14;;;;;;;;;;;;;;;;;;;;;
2021/10/12 04:53:41;;;;;;;;;6.33;6.33;;;;;12.60;nan;101875.75;4710636;30;68814;-84
2021/10/12 04:59:40;;;;;;;;;;;;;;;;;;;;;
2021/10/12 05:02:39;;;;;;;;;;;;;;;;;;;;;
2021/10/12 05:05:59;;;;;;;;;;;;;;;;;;;;;
2021/10/12 05:08:56;;;;;;;;;;;;;;;;;;;;;
2021/10/12 05:36:09;;;;;;;;;9.33;7.67;;;;;12.72;nan;101836.00;4742579;30;44875;-82
2021/10/12 05:41:44;;;;;;;;;9.00;8.00;;;;;12.71;nan;101849.34;4737169;30;44858;-84
2021/10/12 06:04:39;;;;;;;;;;;;;;;;;;;;;
2021/10/12 06:07:54;;;;;;;;;;;;;;;;;;;;;
2021/10/12 06:10:25;;;;;;;;;8.33;8.33;;;;;12.68;nan;101838.56;4759858;29;68123;-78
2021/10/12 06:12:53;;;;;;;;;11.00;9.33;;;;;12.48;nan;101843.44;4759260;29;45581;-78
2021/10/12 06:15:19;;;;;;;;;8.00;8.00;;;;;12.11;nan;101787.44;4758201;29;46217;-79
2021/10/12 06:17:44;;;;;;;;;9.33;8.00;;;;;12.20;nan;101798.34;4744588;29;45593;-79
2021/10/12 06:20:17;;;;;;;;;6.33;5.67;;;;;12.39;nan;101820.13;4759888;29;45449;-80
2021/10/12 06:22:56;;;;;;;;;;;;;;;;;;;;;
2021/10/12 06:25:24;;;;;;;;;10.00;10.00;;;;;12.40;nan;101817.50;4756927;29;74382;-79
2021/10/12 06:27:52;;;;;;;;;8.00;6.67;;;;;12.46;nan;101823.84;4754004;29;45618;-79
2021/10/12 06:30:18;;;;;;;;;7.33;7.00;;;;;12.61;nan;101838.44;4758695;29;46061;-79
2021/10/12 06:33:21;;;;;;;;;9.33;9.33;;;;;12.89;nan;101848.88;4764839;29;44904;-78
2021/10/12 06:35:47;;;;;;;;;11.33;8.33;;;;;12.57;nan;101825.00;4758568;29;46834;-79
2021/10/12 06:38:23;;;;;;;;;;;;;;;;;;;;;
2021/10/12 06:40:52;;;;;;;;;10.00;8.67;;;;;12.51;nan;101817.75;4784396;29;67280;-78
2021/10/12 06:43:20;;;;;;;;;8.00;8.00;;;;;12.84;nan;101839.84;4811169;29;44816;-77
2021/10/12 06:45:48;;;;;;;;;12.67;10.33;;;;;12.69;nan;101849.31;4810648;29;46639;-77
2021/10/12 06:48:26;;;;;;;;;;;;;;;;;;;;;
2021/10/12 06:51:02;;;;;;;;;;;;;;;;;;;;;
2021/10/12 06:53:44;;;;;;;;;;;;;;;;;;;;;
2021/10/12 06:56:10;;;;;;;;;13.33;12.33;;;;;13.11;nan;101852.88;4811058;29;73530;-78
2021/10/12 06:58:37;;;;;;;;;8.00;8.00;;;;;13.20;nan;101850.41;4813105;29;45472;-78
2021/10/12 07:01:15;;;;;;;;;;;;;;;;;;;;;
2021/10/12 07:03:49;;;;;;;;;13.67;12.00;;;;;13.52;nan;101827.06;4801498;29;65157;-78
2021/10/12 07:06:16;;;;;;;;;10.67;6.33;;;;;13.64;nan;101821.03;4803682;29;46878;-79
2021/10/12 07:08:41;;;;;;;;;10.00;10.00;;;;;13.80;nan;101832.94;4791856;29;45767;-77
2021/10/12 07:11:07;;;;;;;;;10.00;10.00;;;;;13.69;nan;101800.63;4776895;29;45494;-78
2021/10/12 07:13:33;;;;;;;;;8.67;8.00;;;;;13.77;nan;101804.34;4774362;29;45429;-77
2021/10/12 07:16:09;;;;;;;;;;;;;;;;;;;;;
2021/10/12 07:19:15;;;;;;;;;;;;;;;;;;;;;
2021/10/12 07:21:54;;;;;;;;;8.67;8.67;;;;;13.96;nan;101808.25;4774323;29;67935;-77
2021/10/12 07:24:20;;;;;;;;;8.33;8.33;;;;;13.64;nan;101788.06;4774052;29;45414;-77
2021/10/12 07:26:45;;;;;;;;;10.00;7.00;;;;;13.86;nan;101819.66;4761212;29;48001;-76
2021/10/12 07:29:37;;;;;;;;;11.00;9.67;;;;;14.08;nan;101812.91;4790409;29;45773;-77
2021/10/12 07:32:03;;;;;;;;;5.00;5.00;;;;;13.94;nan;101820.69;4798902;29;45660;-77
2021/10/12 07:35:00;;;;;;;;;;;;;;;;;;;;;
2021/10/12 07:38:15;;;;;;;;;;;;;;;;;;;;;
2021/10/12 07:40:41;;;;;;;;;13.50;9.00;;;;;14.45;nan;101808.16;4810547;29;71266;-78
2021/10/12 07:46:45;;;;;;;;;5.00;5.00;;;;;14.63;nan;101795.94;4794212;29;45458;-77
2021/10/12 07:49:20;;;;;;;;;12.00;12.00;;;;;14.74;nan;101772.88;4811111;29;46903;-77
2021/10/12 07:51:47;;;;;;;;;5.00;5.00;;;;;14.88;nan;101814.13;4812100;29;45479;-77
2021/10/12 07:54:18;;;;;;;;;17.33;13.33;;;;;14.88;nan;101792.72;4810118;29;45878;-77
2021/10/12 08:00:43;;;;;;;;;17.00;15.00;;;;;15.19;nan;101758.28;4793567;29;45838;-76
2021/10/12 08:04:02;;;;;;;;;;;;;;;;;;;;;
2021/10/12 08:06:33;;;;;;;;;12.33;11.33;;;;;15.10;nan;101790.31;4812670;29;69460;-78
2021/10/12 08:08:58;;;;;;;;;16.33;13.33;;;;;14.94;nan;101755.28;4804411;29;45407;-77
2021/10/12 08:15:34;;;;;;;;;13.00;13.00;;;;;15.46;nan;101802.34;4825843;29;45478;-79
2021/10/12 08:18:20;;;;;;;;;8.33;8.00;;;;;15.47;nan;101790.72;4839778;29;45851;-79
2021/10/12 08:20:53;;;;;;;;;15.33;12.33;;;;;15.48;nan;101803.28;4838398;29;45467;-77
2021/10/12 08:23:36;;;;;;;;;;;;;;;;;;;;;
2021/10/12 08:26:16;;;;;;;;;;;;;;;;;;;;;
2021/10/12 08:28:52;;;;;;;;;21.00;12.00;;;;;15.82;nan;101760.75;4816917;29;68002;-80
2021/10/12 08:31:21;;;;;;;;;17.33;16.00;;;;;15.93;nan;101796.59;4827323;29;45831;-77
2021/10/12 08:33:53;;;;;;;;;15.00;14.00;;;;;15.82;nan;101755.38;4827483;29;46949;-77
2021/10/12 08:42:53;;;;;;;;;19.67;16.00;;;;;15.85;nan;101726.75;4815101;29;45476;-78
2021/10/12 08:45:29;;;;;;;;;19.33;16.33;;;;;16.08;nan;101768.97;4799226;29;46321;-78
2021/10/12 08:48:09;;;;;;;;;;;;;;;;;;;;;
2021/10/12 08:50:45;;;;;;;;;;;;;;;;;;;;;
2021/10/12 08:53:23;;;;;;;;;14.67;14.00;;;;;15.92;nan;101725.06;4816796;29;64945;-81
2021/10/12 08:57:03;;;;;;;;;;;;;;;;;;;;;
2021/10/12 09:00:27;;;;;;;;;;;;;;;;;;;;;
2021/10/12 09:03:44;;;;;;;;;22.00;18.67;;;;;16.28;nan;101764.69;4722158;30;46242;-75
2021/10/12 09:06:09;;;;;;;;;14.33;14.00;;;;;16.18;nan;101769.06;4717825;30;45674;-76
2021/10/12 09:08:48;;;;;;;;;14.33;13.00;;;;;16.41;nan;101768.34;4713502;30;46954;-77
2021/10/12 09:15:31;;;;;;;;;18.00;13.67;;;;;16.53;nan;101749.59;4696455;30;45530;-78
2021/10/12 09:18:25;;;;;;;;;;;;;;;;;;;;;
2021/10/12 09:24:41;;;;;;;;;;;;;;;;;;;;;
2021/10/12 09:27:14;;;;;;;;;11.67;11.67;;;;;16.22;nan;101753.91;4651895;30;67410;-78
2021/10/12 09:29:50;;;;;;;;;19.67;17.67;;;;;16.34;nan;101753.06;4650007;30;45447;-79
2021/10/12 09:32:43;;;;;;;;;;;;;;;;;;;;;
2021/10/12 09:39:06;;;;;;;;;;;;;;;;;;;;;
2021/10/12 09:41:51;;;;;;;;;;;;;;;;;;;;;
2021/10/12 09:47:45;;;;;;;;;18.67;15.00;;;;;16.91;nan;101675.50;4798293;29;45948;-76
2021/10/12 09:54:11;;;;;;;;;13.00;11.50;;;;;17.18;nan;101723.91;4730013;29;46030;-77
2021/10/12 09:56:49;;;;;;;;;14.67;14.33;;;;;17.11;nan;101681.81;4737762;29;45744;-75
2021/10/12 09:59:36;;;;;;;;;21.00;16.33;;;;;17.23;nan;101715.91;4751527;29;45424;-77
2021/10/12 10:03:02;;;;;;;;;;;;;;;;;;;;;
2021/10/12 10:05:44;;;;;;;;;16.67;16.67;;;;;17.73;nan;101706.97;4733320;29;65056;-74
2021/10/12 10:08:10;;;;;;;;;13.33;12.00;;;;;17.64;nan;101706.09;4739590;29;47885;-75
2021/10/12 10:10:45;;;;;;;;;15.67;15.00;;;;;17.97;nan;101732.09;4737451;29;45423;-75
2021/10/12 10:13:11;;;;;;;;;15.00;15.00;;;;;17.98;nan;101721.34;4739095;29;44921;-75
2021/10/12 10:15:50;;;;;;;;;;;;;;;;;;;;;
2021/10/12 10:18:21;;;;;;;;;15.00;13.00;;;;;17.84;nan;101677.41;4733172;29;74982;-76
2021/10/12 10:21:02;;;;;;;;;;;;;;;;;;;;;
2021/10/12 10:24:02;;;;;;;;;11.00;11.00;;;;;18.19;nan;101711.44;4743383;29;67268;-76
2021/10/12 10:27:21;;;;;;;;;16.67;15.33;;;;;18.32;nan;101701.53;4763616;29;46029;-77
2021/10/12 10:29:46;;;;;;;;;14.33;13.00;;;;;17.98;nan;101701.63;4776341;29;45658;-79
2021/10/12 10:32:31;;;;;;;;;9.00;9.00;;;;;18.23;nan;101702.47;4783570;29;45659;-77
2021/10/12 10:35:29;;;;;;;;;6.33;6.33;;;;;18.32;nan;101691.69;4812775;29;45738;-77
2021/10/12 10:38:23;;;;;;;;;13.33;12.00;;;;;18.37;nan;101688.97;4813247;29;45477;-78
2021/10/12 10:41:37;;;;;;;;;;;;;;;;;;;;;
2021/10/12 10:44:23;;;;;;;;;;;;;;;;;;;;;
2021/10/12 10:47:50;;;;;;;;;13.00;12.00;;;;;18.38;nan;101629.72;4810619;29;69645;-78
2021/10/12 10:50:35;;;;;;;;;15.00;13.67;;;;;18.72;nan;101667.28;4810989;29;44949;-76
2021/10/12 10:53:26;;;;;;;;;8.00;7.00;;;;;18.44;nan;101653.03;4809817;29;46790;-76
2021/10/12 10:55:58;;;;;;;;;16.67;16.67;;;;;18.41;nan;101681.78;4816466;29;45821;-77
2021/10/12 10:58:25;;;;;;;;;13.00;13.00;;;;;18.24;nan;101673.72;4820801;29;45554;-75
2021/10/12 11:01:29;;;;;;;;;8.00;7.00;;;;;18.55;nan;101667.34;4812891;29;45375;-76
2021/10/12 11:03:57;;;;;;;;;9.00;9.00;;;;;18.45;nan;101670.97;4815624;29;45890;-76
2021/10/12 11:06:28;;;;;;;;;10.00;9.67;;;;;18.74;nan;101667.25;4813669;29;45615;-76
2021/10/12 11:09:03;;;;;;;;;10.00;8.00;;;;;18.63;nan;101667.31;4812971;29;45503;-76
2021/10/12 11:12:05;;;;;;;;;;;;;;;;;;;;;
2021/10/12 11:19:08;;;;;;;;;8.00;8.00;;;;;19.24;nan;101658.00;4821718;29;45351;-77
2021/10/12 11:21:33;;;;;;;;;10.33;8.33;;;;;19.10;nan;101641.03;4816822;29;45591;-77
2021/10/12 11:24:02;;;;;;;;;9.00;6.33;;;;;18.93;nan;101631.25;4811128;29;45492;-78
2021/10/12 11:26:29;;;;;;;;;9.00;8.00;;;;;18.83;nan;101616.03;4817809;29;47111;-78
2021/10/12 11:28:59;;;;;;;;;6.00;6.00;;;;;18.88;nan;101633.06;4816466;29;45574;-77
2021/10/12 11:31:30;;;;;;;;;3.67;3.67;;;;;19.16;nan;101659.84;4820232;29;45549;-77
2021/10/12 11:34:26;;;;;;;;;14.00;9.33;;;;;19.30;nan;101646.28;4812122;29;45538;-77
2021/10/12 11:37:08;;;;;;;;;;;;;;;;;;;;;
2021/10/12 11:39:41;;;;;;;;;11.67;9.00;;;;;19.05;nan;101610.53;4816440;29;72034;-78
2021/10/12 11:42:10;;;;;;;;;8.00;7.33;;;;;19.23;nan;101645.44;4823918;29;45393;-79
2021/10/12 11:45:07;;;;;;;;;5.00;3.00;;;;;19.02;nan;101608.72;4800096;29;45937;-78
2021/10/12 11:47:42;;;;;;;;;6.33;6.33;;;;;19.09;nan;101609.59;4767723;29;45434;-77
2021/10/12 11:50:49;;;;;;;;;8.67;7.33;;;;;19.07;nan;101574.56;4763682;29;45553;-78
2021/10/12 11:53:43;;;;;;;;;;;;;;;;;;;;;
2021/10/12 12:03:22;;;;;;;;;3.00;3.00;;;;;19.98;nan;101595.31;4773909;29;45497;-79
2021/10/12 12:06:18;;;;;;;;;7.00;4.00;;;;;19.85;nan;101585.53;4773370;29;45509;-78
2021/10/12 12:09:06;;;;;;;;;;;;;;;;;;;;;
2021/10/12 12:11:53;;;;;;;;;4.00;4.00;;;;;19.51;nan;101567.88;4769916;29;74675;-77
2021/10/12 12:14:23;;;;;;;;;3.33;2.67;;;;;19.46;nan;101574.22;4930032;23;44843;-78
2021/10/12 12:17:13;;;;;;;;;4.33;4.00;;;;;19.30;nan;101550.06;4872540;29;44935;-78
2021/10/12 12:20:06;;;;;;;;;3.33;3.33;;;;;19.48;nan;101542.72;4883603;29;45450;-78
2021/10/12 12:22:32;;;;;;;;;3.67;3.67;;;;;19.50;nan;101549.00;4854422;29;46807;-75
2021/10/12 12:25:01;;;;;;;;;3.67;3.67;;;;;19.83;nan;101573.88;4858426;29;45657;-75
2021/10/12 12:27:50;;;;;;;;;4.00;4.00;;;;;19.92;nan;101552.19;4874782;29;45645;-75
2021/10/12 12:30:15;;;;;;;;;5.00;5.00;;;;;19.90;nan;101572.91;4853861;29;46560;-75
2021/10/12 12:32:56;;;;;;;;;2.33;2.33;;;;;19.96;nan;101549.41;4875102;29;46016;-74
2021/10/12 12:35:36;;;;;;;;;5.00;4.00;;;;;19.97;nan;101547.59;4877545;29;45383;-76
2021/10/12 12:38:03;;;;;;;;;4.33;4.33;;;;;19.85;nan;101531.56;4871629;29;46604;-75
2021/10/12 12:40:44;;;;;;;;;5.00;5.00;;;;;20.17;nan;101550.94;4880255;29;45608;-76
2021/10/12 12:43:22;;;;;;;;;6.00;6.00;;;;;20.11;nan;101548.31;4859084;29;46630;-74
2021/10/12 12:46:13;;;;;;;;;6.00;6.00;;;;;20.11;nan;101550.13;4876186;29;45429;-75
2021/10/12 12:48:42;;;;;;;;;5.00;5.00;;;;;19.82;nan;101537.88;4871180;29;45592;-77
2021/10/12 12:51:11;;;;;;;;;5.33;4.33;;;;;19.85;nan;101550.44;4864677;29;45691;-78
2021/10/12 12:53:44;;;;;;;;;5.00;5.00;;;;;20.12;nan;101536.63;4865000;29;46654;-75
2021/10/12 12:57:07;;;;;;;;;3.33;3.33;;;;;20.35;nan;101521.91;4861463;29;45272;-80
2021/10/12 13:00:21;;;;;;;;;7.00;5.67;;;;;20.63;nan;101529.66;4858852;29;45517;-75
2021/10/12 13:03:10;;;;;;;;;5.67;5.00;;;;;20.35;nan;101520.09;4840712;29;45878;-77
2021/10/12 13:05:36;;;;;;;;;5.00;5.00;;;;;19.98;nan;101504.41;4858841;29;47688;-76
2021/10/12 13:08:07;;;;;;;;;5.00;5.00;;;;;20.19;nan;101519.41;4856679;29;45608;-76
2021/10/12 13:11:08;;;;;;;;;3.33;3.00;;;;;20.30;nan;101529.16;4858517;29;45678;-78
2021/10/12 13:47:24;;;;;;;;;;;;;;;;;;;;;
2021/10/12 13:53:09;;;;;;;;;5.33;4.00;;;;;19.85;nan;101499.16;4818471;29;45615;-78
2021/10/12 13:55:43;;;;;;;;;4.00;4.00;;;;;19.93;nan;101478.34;4799048;29;47777;-76
2021/10/12 14:15:57;;;;;;;;;4.00;4.00;;;;;19.28;nan;101484.47;4830614;29;44934;-78
2021/10/12 14:18:56;;;;;;;;;5.00;5.00;;;;;18.97;nan;101462.31;4829675;29;45547;-79
2021/10/12 14:21:58;;;;;;;;;;;;;;;;;;;;;
2021/10/12 14:24:35;;;;;;;;;3.67;3.33;;;;;19.05;nan;101489.19;4834586;29;72064;-75
2021/10/12 14:27:02;;;;;;;;;5.00;5.00;;;;;18.70;nan;101477.75;4845889;29;45718;-76
2021/10/12 14:29:47;;;;;;;;;6.00;6.00;;;;;18.84;nan;101490.25;4843974;29;45777;-75
2021/10/12 14:32:15;;;;;;;;;7.33;4.33;;;;;18.23;nan;101448.47;4844541;29;45436;-76
2021/10/12 14:34:44;;;;;;;;;4.00;4.00;;;;;18.57;nan;101481.47;4848257;29;45487;-75
2021/10/12 14:37:11;;;;;;;;;4.33;3.67;;;;;18.61;nan;101479.66;4838040;29;45480;-76
2021/10/12 14:40:06;;;;;;;;;;;;;;;;;;;;;
2021/10/12 14:42:55;;;;;;;;;7.00;6.00;;;;;18.50;nan;101432.13;4836111;29;75725;-75
2021/10/12 14:45:30;;;;;;;;;4.00;4.00;;;;;18.37;nan;101441.19;4834949;29;45840;-76
2021/10/12 14:48:22;;;;;;;;;6.67;6.67;;;;;18.57;nan;101450.00;4836962;29;45345;-78
2021/10/12 14:50:55;;;;;;;;;5.33;5.00;;;;;18.54;nan;101430.28;4852605;29;45545;-79
2021/10/12 14:53:21;;;;;;;;;4.00;4.00;;;;;18.31;nan;101446.63;4851484;29;45861;-78
2021/10/12 14:55:59;;;;;;;;;;;;;;;;;;;;;
2021/10/12 14:58:31;;;;;;;;;3.33;3.33;;;;;18.67;nan;101449.97;4826595;29;67972;-75
2021/10/12 15:01:14;;;;;;;;;6.00;6.00;;;;;18.44;nan;101421.41;4834334;29;45464;-75
2021/10/12 15:03:50;;;;;;;;;;;;;;;;;;;;;
2021/10/12 15:06:21;;;;;;;;;6.00;6.00;;;;;18.62;nan;101457.16;4848025;29;72804;-75
2021/10/12 15:08:49;;;;;;;;;6.33;6.33;;;;;18.57;nan;101430.28;4852490;29;45415;-76
2021/10/12 15:11:39;;;;;;;;;7.67;7.67;;;;;18.54;nan;101428.50;4829575;29;45792;-77
2021/10/12 15:14:15;;;;;;;;;;;;;;;;;;;;;
2021/10/12 15:16:56;;;;;;;;;;;;;;;;;;;;;
2021/10/12 15:19:31;;;;;;;;;8.00;7.67;;;;;18.51;nan;101423.13;4843711;29;68581;-76
2021/10/12 15:21:58;;;;;;;;;7.00;7.00;;;;;18.61;nan;101431.16;4843783;29;45021;-78
2021/10/12 15:24:37;;;;;;;;;;;;;;;;;;;;;
2021/10/12 15:27:03;;;;;;;;;7.00;7.00;;;;;18.65;nan;101459.84;4800151;29;73143;-75
2021/10/12 15:29:33;;;;;;;;;7.33;7.33;;;;;18.66;nan;101450.84;4829959;29;45459;-77
2021/10/12 15:32:08;;;;;;;;;8.67;6.67;;;;;19.03;nan;101456.84;4846632;29;45487;-74
2021/10/12 15:35:24;;;;;;;;;8.67;8.00;;;;;19.17;nan;101452.22;4825322;29;45918;-75
2021/10/12 15:37:50;;;;;;;;;6.00;6.00;;;;;18.75;nan;101427.41;4850573;29;44818;-77
2021/10/12 15:40:17;;;;;;;;;8.00;8.00;;;;;18.97;nan;101455.09;4831341;29;45557;-78
2021/10/12 15:42:43;;;;;;;;;9.00;7.67;;;;;18.94;nan;101438.06;4845498;29;44912;-78
2021/10/12 15:48:45;;;;;;;;;9.67;6.67;;;;;19.29;nan;101450.28;4815163;29;45679;-78
2021/10/12 15:52:18;;;;;;;;;;;;;;;;;;;;;
2021/10/12 15:54:50;;;;;;;;;10.00;9.00;;;;;19.05;nan;101414.59;4778819;29;66236;-78
2021/10/12 15:57:35;;;;;;;;;;;;;;;;;;;;;
2021/10/12 16:00:31;;;;;;;;;;;;;;;;;;;;;
2021/10/12 16:02:57;;;;;;;;;6.00;6.00;;;;;19.25;nan;101427.88;4787978;29;67264;-78
2021/10/12 16:05:22;;;;;;;;;5.00;5.00;;;;;19.31;nan;101444.00;4792885;29;45429;-78
2021/10/12 16:07:48;;;;;;;;;7.33;6.33;;;;;19.22;nan;101443.19;4780850;29;45510;-77
2021/10/12 16:10:15;;;;;;;;;6.00;6.00;;;;;19.17;nan;101440.56;4780370;29;45390;-78
2021/10/12 16:12:53;;;;;;;;;;;;;;;;;;;;;
2021/10/12 16:24:01;;;;;;;;;7.67;7.67;;;;;19.03;nan;101434.38;4841265;29;44795;-77
2021/10/12 16:26:30;;;;;;;;;8.67;7.67;;;;;18.89;nan;101431.84;4852481;29;45397;-77
2021/10/12 16:29:03;;;;;;;;;7.00;7.00;;;;;19.05;nan;101467.63;4852249;29;47358;-77
2021/10/12 16:31:32;;;;;;;;;8.00;6.67;;;;;18.97;nan;101432.66;4854460;29;45498;-76
2021/10/12 16:34:23;;;;;;;;;7.67;7.00;;;;;19.07;nan;101434.34;4853905;29;45390;-76
2021/10/12 16:36:56;;;;;;;;;7.33;6.33;;;;;19.05;nan;101463.13;4852052;29;45486;-76
2021/10/12 16:39:30;;;;;;;;;4.33;4.00;;;;;19.27;nan;101466.50;4835800;29;46866;-77
2021/10/12 16:41:56;;;;;;;;;4.00;4.00;;;;;19.11;nan;101460.38;4851502;29;45593;-77
2021/10/12 16:44:47;;;;;;;;;4.67;3.33;;;;;18.96;nan;101423.66;4851624;29;45386;-77
2021/10/12 16:47:13;;;;;;;;;5.00;5.00;;;;;18.81;nan;101458.84;4848622;29;44939;-77
2021/10/12 16:49:48;;;;;;;;;;;;;;;;;;;;;
2021/10/12 16:52:17;;;;;;;;;4.67;4.00;;;;;18.50;nan;101431.22;4849383;29;72808;-78
2021/10/12 16:55:21;;;;;;;;;5.67;4.67;;;;;18.60;nan;101457.16;4835861;29;45489;-78
2021/10/12 16:57:47;;;;;;;;;4.67;4.67;;;;;18.54;nan;101477.00;4835918;29;45580;-79
2021/10/12 17:00:45;;;;;;;;;;;;;;;;;;;;;
2021/10/12 17:03:25;;;;;;;;;;;;;;;;;;;;;
2021/10/12 17:05:54;;;;;;;;;3.67;3.67;;;;;18.21;nan;101459.25;4849859;29;67236;-78
2021/10/12 17:08:31;;;;;;;;;;;;;;;;;;;;;
2021/10/12 17:11:58;;;;;;;;;6.67;4.00;;;;;18.35;nan;101495.06;4847793;29;74441;-78
2021/10/12 17:14:36;;;;;;;;;4.00;4.00;;;;;18.21;nan;101480.78;4832041;29;45343;-77
2021/10/12 17:17:01;;;;;;;;;3.00;3.00;;;;;18.00;nan;101489.88;4849459;29;45907;-76
2021/10/12 17:19:27;;;;;;;;;5.00;3.00;;;;;18.01;nan;101497.03;4848498;29;45534;-77
2021/10/12 17:22:03;;;;;;;;;;;;;;;;;;;;;
2021/10/12 17:27:41;;;;;;;;;4.00;3.00;;;;;17.71;nan;101480.06;4811051;29;45699;-77
2021/10/12 17:30:19;;;;;;;;;6.00;4.67;;;;;18.09;nan;101513.16;4810334;29;45347;-78
2021/10/12 17:32:48;;;;;;;;;5.67;5.67;;;;;17.71;nan;101490.81;4795765;29;46977;-78
2021/10/12 17:36:10;;;;;;;;;;;;;;;;;;;;;
2021/10/12 17:38:43;;;;;;;;;8.33;7.00;;;;;17.55;nan;101476.56;4805099;29;67738;-77
2021/10/12 17:41:18;;;;;;;;;4.00;4.00;;;;;17.66;nan;101489.97;4791891;29;45745;-77
2021/10/12 17:43:54;;;;;;;;;;;;;;;;;;;;;
2021/10/12 17:46:23;;;;;;;;;6.33;5.67;;;;;17.89;nan;101522.19;4805539;29;72119;-77
2021/10/12 17:49:22;;;;;;;;;;;;;;;;;;;;;
2021/10/12 17:52:27;;;;;;;;;;;;;;;;;;;;;
2021/10/12 17:58:44;;;;;;;;;;;;;;;;;;;;;
2021/10/12 18:01:05;;;;;;;;;8.67;6.33;;;;;17.63;nan;101526.72;4754574;29;45453;-77
2021/10/12 18:03:32;;;;;;;;;4.33;4.33;;;;;17.66;nan;101518.66;4746843;29;45467;-78
2021/10/12 18:06:06;;;;;;;;;6.00;6.00;;;;;17.75;nan;101521.31;4718770;30;46839;-77
2021/10/12 18:08:49;;;;;;;;;5.33;5.33;;;;;17.71;nan;101539.25;4703788;30;45407;-78
2021/10/12 18:11:32;;;;;;;;;;;;;;;;;;;;;
2021/10/12 18:14:00;;;;;;;;;8.67;7.00;;;;;17.42;nan;101527.69;4717287;30;64756;-77
2021/10/12 18:17:02;;;;;;;;;;;;;;;;;;;;;
2021/10/12 18:19:28;;;;;;;;;8.00;7.33;;;;;17.10;nan;101521.44;4684467;30;72894;-76
2021/10/12 18:22:04;;;;;;;;;;;;;;;;;;;;;
2021/10/12 18:25:25;;;;;;;;;8.67;6.00;;;;;17.37;nan;101550.09;4685395;30;66125;-77
2021/10/12 18:27:51;;;;;;;;;4.00;4.00;;;;;17.07;nan;101559.06;4687072;30;46967;-78
2021/10/12 18:30:16;;;;;;;;;9.00;7.67;;;;;17.10;nan;101558.16;4684968;30;45727;-76
2021/10/12 18:32:44;;;;;;;;;8.67;7.00;;;;;16.99;nan;101540.25;4682788;30;45541;-76
2021/10/12 18:35:10;;;;;;;;;5.00;5.00;;;;;16.98;nan;101554.56;4713058;29;45474;-76
2021/10/12 18:37:38;;;;;;;;;6.67;6.67;;;;;17.00;nan;101558.16;4770835;29;47965;-77
2021/10/12 18:40:04;;;;;;;;;6.67;6.67;;;;;16.89;nan;101559.94;4770315;29;44955;-77
2021/10/12 18:42:30;;;;;;;;;7.00;6.67;;;;;16.82;nan;101563.50;4768526;29;45410;-77
2021/10/12 18:44:55;;;;;;;;;5.67;5.33;;;;;16.77;nan;101562.59;4769568;29;45526;-78
2021/10/12 18:47:21;;;;;;;;;7.67;7.67;;;;;16.76;nan;101558.09;4751904;29;46284;-76
2021/10/12 18:49:49;;;;;;;;;9.00;5.67;;;;;16.76;nan;101568.84;4753087;29;45584;-77
2021/10/12 18:52:14;;;;;;;;;8.67;8.67;;;;;16.69;nan;101567.06;4753094;29;46007;-77
2021/10/12 18:54:39;;;;;;;;;9.67;8.67;;;;;16.65;nan;101570.63;4753438;29;45584;-77
2021/10/12 18:57:05;;;;;;;;;11.00;8.33;;;;;16.57;nan;101568.81;4815260;29;45647;-77
2021/10/12 18:59:36;;;;;;;;;9.00;6.33;;;;;16.71;nan;101571.53;4829419;29;45731;-77
2021/10/12 19:02:05;;;;;;;;;8.67;8.67;;;;;16.62;nan;101551.81;4814227;29;45467;-77
2021/10/12 19:04:38;;;;;;;;;11.00;10.00;;;;;16.65;nan;101576.00;4828655;29;45504;-76
2021/10/12 19:07:04;;;;;;;;;11.67;7.67;;;;;16.52;nan;101580.41;4810700;29;47090;-76
2021/10/12 19:09:29;;;;;;;;;7.00;7.00;;;;;16.45;nan;101547.28;4810051;29;45498;-77
2021/10/12 19:11:58;;;;;;;;;11.33;8.67;;;;;16.55;nan;101549.09;4829052;29;45498;-77
2021/10/12 19:14:38;;;;;;;;;;;;;;;;;;;;;
2021/10/12 19:20:29;;;;;;;;;;;;;;;;;;;;;
2021/10/12 19:22:57;;;;;;;;;12.67;12.67;;;;;16.64;nan;101560.75;4771583;29;67609;-77
2021/10/12 19:26:05;;;;;;;;;11.67;11.67;;;;;16.56;nan;101553.59;4771708;29;45506;-77
2021/10/12 19:28:40;;;;;;;;;;;;;;;;;;;;;
2021/10/12 19:31:09;;;;;;;;;8.33;8.33;;;;;16.70;nan;101579.56;4773451;29;72922;-77
2021/10/12 19:33:57;;;;;;;;;13.67;12.67;;;;;16.57;nan;101546.44;4775318;29;45605;-77
2021/10/12 19:36:50;;;;;;;;;10.33;9.00;;;;;16.52;nan;101541.06;4751050;29;45627;-77
2021/10/12 19:39:28;;;;;;;;;;;;;;;;;;;;;
2021/10/12 19:41:55;;;;;;;;;11.00;11.00;;;;;16.43;nan;101570.56;4771035;29;72061;-76
2021/10/12 19:44:33;;;;;;;;;;;;;;;;;;;;;
2021/10/12 19:46:59;;;;;;;;;12.00;8.00;;;;;16.38;nan;101556.19;4770732;29;65055;-77
2021/10/12 19:49:41;;;;;;;;;;;;;;;;;;;;;
2021/10/12 19:52:10;;;;;;;;;9.00;6.67;;;;;16.50;nan;101575.06;4792967;29;71963;-76
2021/10/12 19:54:36;;;;;;;;;11.00;9.67;;;;;16.33;nan;101558.88;4808439;29;45522;-77
2021/10/12 19:57:32;;;;;;;;;8.00;8.00;;;;;16.53;nan;101582.22;4811376;29;45656;-76
2021/10/12 20:00:06;;;;;;;;;9.67;9.67;;;;;16.79;nan;101599.28;4839677;29;46406;-77
2021/10/12 20:02:39;;;;;;;;;9.33;9.33;;;;;16.75;nan;101591.22;4851384;29;45396;-76
2021/10/12 20:05:50;;;;;;;;;;;;;;;;;;;;;
2021/10/12 20:08:16;;;;;;;;;7.00;7.00;;;;;16.45;nan;101549.09;4850130;29;65826;-76
2021/10/12 20:10:53;;;;;;;;;9.00;9.00;;;;;16.87;nan;101588.59;4830120;29;47451;-76
2021/10/12 20:16:35;;;;;;;;;;;;;;;;;;;;;
2021/10/12 20:23:38;;;;;;;;;;;;;;;;;;;;;
2021/10/12 20:30:06;;;;;;;;;;;;;;;;;;;;;
2021/10/12 20:33:03;;;;;;;;;;;;;;;;;;;;;
2021/10/12 20:36:56;;;;;;;;;;;;;;;;;;;;;